Aviation Digital Data Service (ADDS)

Output produced by METARs form (0327 UTC 25 January 2020)
found at http://www.aviationweather.gov/metar/data/
 
METAR text: LCLK 250300Z 32006KT CAVOK 04/M02 Q1027 NOSIG
Conditions at: LCLK (LARNACA/LARNAX A, CY) observed 0300 UTC 25 January 2020
Temperature: 4.0°C (39°F)
Dewpoint: -2.0°C (28°F) [RH = 65%]
Pressure (altimeter): 30.32 inches Hg (1027.0 mb)
Winds: from the NW (320 degrees) at 7 MPH (6 knots; 3.1 m/s)
Visibility: 6 or more miles (10+ km)
Ceiling: ceiling and visibility are OK
Clouds: unknown
Weather: no significant weather observed at this time

METAR text: LCLK 250230Z 30007KT CAVOK 04/M02 Q1027 NOSIG
Conditions at: LCLK (LARNACA/LARNAX A, CY) observed 0230 UTC 25 January 2020
Temperature: 4.0°C (39°F)
Dewpoint: -2.0°C (28°F) [RH = 65%]
Pressure (altimeter): 30.32 inches Hg (1027.0 mb)
Winds: from the WNW (300 degrees) at 8 MPH (7 knots; 3.6 m/s)
Visibility: 6 or more miles (10+ km)
Ceiling: ceiling and visibility are OK
Clouds: unknown
Weather: no significant weather observed at this time

METAR text: LCLK 250200Z 30006KT CAVOK 04/M02 Q1027 NOSIG
Conditions at: LCLK (LARNACA/LARNAX A, CY) observed 0200 UTC 25 January 2020
Temperature: 4.0°C (39°F)
Dewpoint: -2.0°C (28°F) [RH = 65%]
Pressure (altimeter): 30.32 inches Hg (1027.0 mb)
Winds: from the WNW (300 degrees) at 7 MPH (6 knots; 3.1 m/s)
Visibility: 6 or more miles (10+ km)
Ceiling: ceiling and visibility are OK
Clouds: unknown
Weather: no significant weather observed at this time

METAR text: LCLK 250130Z 31006KT CAVOK 04/M02 Q1027 NOSIG
Conditions at: LCLK (LARNACA/LARNAX A, CY) observed 0130 UTC 25 January 2020
Temperature: 4.0°C (39°F)
Dewpoint: -2.0°C (28°F) [RH = 65%]
Pressure (altimeter): 30.32 inches Hg (1027.0 mb)
Winds: from the NW (310 degrees) at 7 MPH (6 knots; 3.1 m/s)
Visibility: 6 or more miles (10+ km)
Ceiling: ceiling and visibility are OK
Clouds: unknown
Weather: no significant weather observed at this time

METAR text: LCLK 250100Z 31006KT CAVOK 04/M02 Q1027 NOSIG
Conditions at: LCLK (LARNACA/LARNAX A, CY) observed 0100 UTC 25 January 2020
Temperature: 4.0°C (39°F)
Dewpoint: -2.0°C (28°F) [RH = 65%]
Pressure (altimeter): 30.32 inches Hg (1027.0 mb)
Winds: from the NW (310 degrees) at 7 MPH (6 knots; 3.1 m/s)
Visibility: 6 or more miles (10+ km)
Ceiling: ceiling and visibility are OK
Clouds: unknown
Weather: no significant weather observed at this time

METAR text: LCLK 250030Z 32006KT CAVOK 05/M01 Q1027 NOSIG
Conditions at: LCLK (LARNACA/LARNAX A, CY) observed 0030 UTC 25 January 2020
Temperature: 5.0°C (41°F)
Dewpoint: -1.0°C (30°F) [RH = 65%]
Pressure (altimeter): 30.32 inches Hg (1027.0 mb)
Winds: from the NW (320 degrees) at 7 MPH (6 knots; 3.1 m/s)
Visibility: 6 or more miles (10+ km)
Ceiling: ceiling and visibility are OK
Clouds: unknown
Weather: no significant weather observed at this time

METAR text: LCLK 250000Z 30006KT CAVOK 04/M02 Q1027 NOSIG
Conditions at: LCLK (LARNACA/LARNAX A, CY) observed 0000 UTC 25 January 2020
Temperature: 4.0°C (39°F)
Dewpoint: -2.0°C (28°F) [RH = 65%]
Pressure (altimeter): 30.32 inches Hg (1027.0 mb)
Winds: from the WNW (300 degrees) at 7 MPH (6 knots; 3.1 m/s)
Visibility: 6 or more miles (10+ km)
Ceiling: ceiling and visibility are OK
Clouds: unknown
Weather: no significant weather observed at this time

METAR text: LCLK 242330Z 30006KT CAVOK 04/M02 Q1027 NOSIG
Conditions at: LCLK (LARNACA/LARNAX A, CY) observed 2330 UTC 24 January 2020
Temperature: 4.0°C (39°F)
Dewpoint: -2.0°C (28°F) [RH = 65%]
Pressure (altimeter): 30.32 inches Hg (1027.0 mb)
Winds: from the WNW (300 degrees) at 7 MPH (6 knots; 3.1 m/s)
Visibility: 6 or more miles (10+ km)
Ceiling: ceiling and visibility are OK
Clouds: unknown
Weather: no significant weather observed at this time

METAR text: LCLK 242300Z 31005KT CAVOK 04/M01 Q1027 NOSIG
Conditions at: LCLK (LARNACA/LARNAX A, CY) observed 2300 UTC 24 January 2020
Temperature: 4.0°C (39°F)
Dewpoint: -1.0°C (30°F) [RH = 70%]
Pressure (altimeter): 30.32 inches Hg (1027.0 mb)
Winds: from the NW (310 degrees) at 6 MPH (5 knots; 2.6 m/s)
Visibility: 6 or more miles (10+ km)
Ceiling: ceiling and visibility are OK
Clouds: unknown
Weather: no significant weather observed at this time

METAR text: LCLK 242230Z 30006KT CAVOK 04/M02 Q1027 NOSIG
Conditions at: LCLK (LARNACA/LARNAX A, CY) observed 2230 UTC 24 January 2020
Temperature: 4.0°C (39°F)
Dewpoint: -2.0°C (28°F) [RH = 65%]
Pressure (altimeter): 30.32 inches Hg (1027.0 mb)
Winds: from the WNW (300 degrees) at 7 MPH (6 knots; 3.1 m/s)
Visibility: 6 or more miles (10+ km)
Ceiling: ceiling and visibility are OK
Clouds: unknown
Weather: no significant weather observed at this time

METAR text: LCLK 242200Z 32006KT CAVOK 05/M01 Q1027 NOSIG
Conditions at: LCLK (LARNACA/LARNAX A, CY) observed 2200 UTC 24 January 2020
Temperature: 5.0°C (41°F)
Dewpoint: -1.0°C (30°F) [RH = 65%]
Pressure (altimeter): 30.32 inches Hg (1027.0 mb)
Winds: from the NW (320 degrees) at 7 MPH (6 knots; 3.1 m/s)
Visibility: 6 or more miles (10+ km)
Ceiling: ceiling and visibility are OK
Clouds: unknown
Weather: no significant weather observed at this time

METAR text: LCLK 242130Z 30004KT CAVOK 04/M02 Q1026 NOSIG
Conditions at: LCLK (LARNACA/LARNAX A, CY) observed 2130 UTC 24 January 2020
Temperature: 4.0°C (39°F)
Dewpoint: -2.0°C (28°F) [RH = 65%]
Pressure (altimeter): 30.30 inches Hg (1026.0 mb)
Winds: from the WNW (300 degrees) at 5 MPH (4 knots; 2.1 m/s)
Visibility: 6 or more miles (10+ km)
Ceiling: ceiling and visibility are OK
Clouds: unknown
Weather: no significant weather observed at this time

METAR text: LCLK 242100Z 30006KT CAVOK 04/M02 Q1027 NOSIG
Conditions at: LCLK (LARNACA/LARNAX A, CY) observed 2100 UTC 24 January 2020
Temperature: 4.0°C (39°F)
Dewpoint: -2.0°C (28°F) [RH = 65%]
Pressure (altimeter): 30.32 inches Hg (1027.0 mb)
Winds: from the WNW (300 degrees) at 7 MPH (6 knots; 3.1 m/s)
Visibility: 6 or more miles (10+ km)
Ceiling: ceiling and visibility are OK
Clouds: unknown
Weather: no significant weather observed at this time

METAR text: LCLK 242030Z 31004KT CAVOK 04/M02 Q1027 NOSIG
Conditions at: LCLK (LARNACA/LARNAX A, CY) observed 2030 UTC 24 January 2020
Temperature: 4.0°C (39°F)
Dewpoint: -2.0°C (28°F) [RH = 65%]
Pressure (altimeter): 30.32 inches Hg (1027.0 mb)
Winds: from the NW (310 degrees) at 5 MPH (4 knots; 2.1 m/s)
Visibility: 6 or more miles (10+ km)
Ceiling: ceiling and visibility are OK
Clouds: unknown
Weather: no significant weather observed at this time

METAR text: LCLK 242000Z 28004KT CAVOK 04/M02 Q1026 NOSIG
Conditions at: LCLK (LARNACA/LARNAX A, CY) observed 2000 UTC 24 January 2020
Temperature: 4.0°C (39°F)
Dewpoint: -2.0°C (28°F) [RH = 65%]
Pressure (altimeter): 30.30 inches Hg (1026.0 mb)
Winds: from the W (280 degrees) at 5 MPH (4 knots; 2.1 m/s)
Visibility: 6 or more miles (10+ km)
Ceiling: ceiling and visibility are OK
Clouds: unknown
Weather: no significant weather observed at this time

METAR text: LCLK 241930Z 27003KT 250V320 CAVOK 04/M02 Q1026 NOSIG
Conditions at: LCLK (LARNACA/LARNAX A, CY) observed 1930 UTC 24 January 2020
Temperature: 4.0°C (39°F)
Dewpoint: -2.0°C (28°F) [RH = 65%]
Pressure (altimeter): 30.30 inches Hg (1026.0 mb)
Winds: from the W (270 degrees) at 3 MPH (3 knots; 1.5 m/s)
Visibility: 6 or more miles (10+ km)
Ceiling: ceiling and visibility are OK
Clouds: unknown
Weather: no significant weather observed at this time

METAR text: LCLK 241900Z 28003KT 220V330 CAVOK 05/M02 Q1026 NOSIG
Conditions at: LCLK (LARNACA/LARNAX A, CY) observed 1900 UTC 24 January 2020
Temperature: 5.0°C (41°F)
Dewpoint: -2.0°C (28°F) [RH = 60%]
Pressure (altimeter): 30.30 inches Hg (1026.0 mb)
Winds: from the W (280 degrees) at 3 MPH (3 knots; 1.5 m/s)
Visibility: 6 or more miles (10+ km)
Ceiling: ceiling and visibility are OK
Clouds: unknown
Weather: no significant weather observed at this time

METAR text: LCLK 241830Z 35006KT CAVOK 07/M01 Q1025 NOSIG
Conditions at: LCLK (LARNACA/LARNAX A, CY) observed 1830 UTC 24 January 2020
Temperature: 7.0°C (45°F)
Dewpoint: -1.0°C (30°F) [RH = 57%]
Pressure (altimeter): 30.27 inches Hg (1025.0 mb)
Winds: from the N (350 degrees) at 7 MPH (6 knots; 3.1 m/s)
Visibility: 6 or more miles (10+ km)
Ceiling: ceiling and visibility are OK
Clouds: unknown
Weather: no significant weather observed at this time

METAR text: LCLK 241800Z 01007KT 350V120 CAVOK 07/M01 Q1025 NOSIG
Conditions at: LCLK (LARNACA/LARNAX A, CY) observed 1800 UTC 24 January 2020
Temperature: 7.0°C (45°F)
Dewpoint: -1.0°C (30°F) [RH = 57%]
Pressure (altimeter): 30.27 inches Hg (1025.0 mb)
Winds: from the N (10 degrees) at 8 MPH (7 knots; 3.6 m/s)
Visibility: 6 or more miles (10+ km)
Ceiling: ceiling and visibility are OK
Clouds: unknown
Weather: no significant weather observed at this time

METAR text: LCLK 241730Z 01004KT 9999 FEW030 08/M01 Q1025 NOSIG
Conditions at: LCLK (LARNACA/LARNAX A, CY) observed 1730 UTC 24 January 2020
Temperature: 8.0°C (46°F)
Dewpoint: -1.0°C (30°F) [RH = 53%]
Pressure (altimeter): 30.27 inches Hg (1025.0 mb)
Winds: from the N (10 degrees) at 5 MPH (4 knots; 2.1 m/s)
Visibility: 6 or more miles (10+ km)
Ceiling: at least 12,000 feet AGL
Clouds: few clouds at 3000 feet AGL
Weather: no significant weather observed at this time

METAR text: LCLK 241700Z 36008KT 9999 FEW030 08/M02 Q1025 NOSIG
Conditions at: LCLK (LARNACA/LARNAX A, CY) observed 1700 UTC 24 January 2020
Temperature: 8.0°C (46°F)
Dewpoint: -2.0°C (28°F) [RH = 49%]
Pressure (altimeter): 30.27 inches Hg (1025.0 mb)
Winds: from the N (360 degrees) at 9 MPH (8 knots; 4.1 m/s)
Visibility: 6 or more miles (10+ km)
Ceiling: at least 12,000 feet AGL
Clouds: few clouds at 3000 feet AGL
Weather: no significant weather observed at this time

METAR text: LCLK 241630Z 35012KT 9999 FEW030 09/M02 Q1024 NOSIG
Conditions at: LCLK (LARNACA/LARNAX A, CY) observed 1630 UTC 24 January 2020
Temperature: 9.0°C (48°F)
Dewpoint: -2.0°C (28°F) [RH = 46%]
Pressure (altimeter): 30.24 inches Hg (1024.0 mb)
Winds: from the N (350 degrees) at 14 MPH (12 knots; 6.2 m/s)
Visibility: 6 or more miles (10+ km)
Ceiling: at least 12,000 feet AGL
Clouds: few clouds at 3000 feet AGL
Weather: no significant weather observed at this time

METAR text: LCLK 241600Z 33009KT 9999 FEW030 08/M03 Q1024 NOSIG
Conditions at: LCLK (LARNACA/LARNAX A, CY) observed 1600 UTC 24 January 2020
Temperature: 8.0°C (46°F)
Dewpoint: -3.0°C (27°F) [RH = 46%]
Pressure (altimeter): 30.24 inches Hg (1024.0 mb)
Winds: from the NNW (330 degrees) at 10 MPH (9 knots; 4.6 m/s)
Visibility: 6 or more miles (10+ km)
Ceiling: at least 12,000 feet AGL
Clouds: few clouds at 3000 feet AGL
Weather: no significant weather observed at this time

METAR text: LCLK 241530Z 35013KT 9999 FEW030 10/M02 Q1024 NOSIG
Conditions at: LCLK (LARNACA/LARNAX A, CY) observed 1530 UTC 24 January 2020
Temperature: 10.0°C (50°F)
Dewpoint: -2.0°C (28°F) [RH = 43%]
Pressure (altimeter): 30.24 inches Hg (1024.0 mb)
Winds: from the N (350 degrees) at 15 MPH (13 knots; 6.7 m/s)
Visibility: 6 or more miles (10+ km)
Ceiling: at least 12,000 feet AGL
Clouds: few clouds at 3000 feet AGL
Weather: no significant weather observed at this time

METAR text: LCLK 241500Z 35016KT 9999 FEW030 10/M02 Q1023 NOSIG
Conditions at: LCLK (LARNACA/LARNAX A, CY) observed 1500 UTC 24 January 2020
Temperature: 10.0°C (50°F)
Dewpoint: -2.0°C (28°F) [RH = 43%]
Pressure (altimeter): 30.21 inches Hg (1023.0 mb)
Winds: from the N (350 degrees) at 18 MPH (16 knots; 8.2 m/s)
Visibility: 6 or more miles (10+ km)
Ceiling: at least 12,000 feet AGL
Clouds: few clouds at 3000 feet AGL
Weather: no significant weather observed at this time

METAR text: LCLK 241430Z 34016KT 9999 FEW030 11/M03 Q1023 NOSIG
Conditions at: LCLK (LARNACA/LARNAX A, CY) observed 1430 UTC 24 January 2020
Temperature: 11.0°C (52°F)
Dewpoint: -3.0°C (27°F) [RH = 37%]
Pressure (altimeter): 30.21 inches Hg (1023.0 mb)
Winds: from the NNW (340 degrees) at 18 MPH (16 knots; 8.2 m/s)
Visibility: 6 or more miles (10+ km)
Ceiling: at least 12,000 feet AGL
Clouds: few clouds at 3000 feet AGL
Weather: no significant weather observed at this time

METAR text: LCLK 241400Z 35019KT 9999 FEW030 12/M03 Q1023 NOSIG
Conditions at: LCLK (LARNACA/LARNAX A, CY) observed 1400 UTC 24 January 2020
Temperature: 12.0°C (54°F)
Dewpoint: -3.0°C (27°F) [RH = 35%]
Pressure (altimeter): 30.21 inches Hg (1023.0 mb)
Winds: from the N (350 degrees) at 22 MPH (19 knots; 9.8 m/s)
Visibility: 6 or more miles (10+ km)
Ceiling: at least 12,000 feet AGL
Clouds: few clouds at 3000 feet AGL
Weather: no significant weather observed at this time

METAR text: LCLK 241330Z 35022KT 9999 FEW030 12/M02 Q1023 NOSIG
Conditions at: LCLK (LARNACA/LARNAX A, CY) observed 1330 UTC 24 January 2020
Temperature: 12.0°C (54°F)
Dewpoint: -2.0°C (28°F) [RH = 38%]
Pressure (altimeter): 30.21 inches Hg (1023.0 mb)
Winds: from the N (350 degrees) at 25 MPH (22 knots; 11.3 m/s)
Visibility: 6 or more miles (10+ km)
Ceiling: at least 12,000 feet AGL
Clouds: few clouds at 3000 feet AGL
Weather: no significant weather observed at this time

METAR text: LCLK 241300Z 35019KT 9999 FEW030 12/M03 Q1023 NOSIG
Conditions at: LCLK (LARNACA/LARNAX A, CY) observed 1300 UTC 24 January 2020
Temperature: 12.0°C (54°F)
Dewpoint: -3.0°C (27°F) [RH = 35%]
Pressure (altimeter): 30.21 inches Hg (1023.0 mb)
Winds: from the N (350 degrees) at 22 MPH (19 knots; 9.8 m/s)
Visibility: 6 or more miles (10+ km)
Ceiling: at least 12,000 feet AGL
Clouds: few clouds at 3000 feet AGL
Weather: no significant weather observed at this time

METAR text: LCLK 241230Z 34021KT 9999 FEW040 12/M01 Q1022 NOSIG
Conditions at: LCLK (LARNACA/LARNAX A, CY) observed 1230 UTC 24 January 2020
Temperature: 12.0°C (54°F)
Dewpoint: -1.0°C (30°F) [RH = 40%]
Pressure (altimeter): 30.18 inches Hg (1022.0 mb)
Winds: from the NNW (340 degrees) at 24 MPH (21 knots; 10.8 m/s)
Visibility: 6 or more miles (10+ km)
Ceiling: at least 12,000 feet AGL
Clouds: few clouds at 4000 feet AGL
Weather: no significant weather observed at this time

METAR text: LCLK 241200Z 36021KT 9999 FEW040 13/M01 Q1022 NOSIG
Conditions at: LCLK (LARNACA/LARNAX A, CY) observed 1200 UTC 24 January 2020
Temperature: 13.0°C (55°F)
Dewpoint: -1.0°C (30°F) [RH = 38%]
Pressure (altimeter): 30.18 inches Hg (1022.0 mb)
Winds: from the N (360 degrees) at 24 MPH (21 knots; 10.8 m/s)
Visibility: 6 or more miles (10+ km)
Ceiling: at least 12,000 feet AGL
Clouds: few clouds at 4000 feet AGL
Weather: no significant weather observed at this time

METAR text: LCLK 241130Z 34017KT 9999 FEW040 13/M01 Q1022 NOSIG
Conditions at: LCLK (LARNACA/LARNAX A, CY) observed 1130 UTC 24 January 2020
Temperature: 13.0°C (55°F)
Dewpoint: -1.0°C (30°F) [RH = 38%]
Pressure (altimeter): 30.18 inches Hg (1022.0 mb)
Winds: from the NNW (340 degrees) at 20 MPH (17 knots; 8.7 m/s)
Visibility: 6 or more miles (10+ km)
Ceiling: at least 12,000 feet AGL
Clouds: few clouds at 4000 feet AGL
Weather: no significant weather observed at this time

METAR text: LCLK 241100Z 35017KT 9999 FEW040 13/M00 Q1022 NOSIG
Conditions at: LCLK (LARNACA/LARNAX A, CY) observed 1100 UTC 24 January 2020
Temperature: 13.0°C (55°F)
Dewpoint: 0.0°C (32°F) [RH = 41%]
Pressure (altimeter): 30.18 inches Hg (1022.0 mb)
Winds: from the N (350 degrees) at 20 MPH (17 knots; 8.7 m/s)
Visibility: 6 or more miles (10+ km)
Ceiling: at least 12,000 feet AGL
Clouds: few clouds at 4000 feet AGL
Weather: no significant weather observed at this time

METAR text: LCLK 241030Z 35018KT 9999 FEW040 13/00 Q1022 NOSIG
Conditions at: LCLK (LARNACA/LARNAX A, CY) observed 1030 UTC 24 January 2020
Temperature: 13.0°C (55°F)
Dewpoint: 0.0°C (32°F) [RH = 41%]
Pressure (altimeter): 30.18 inches Hg (1022.0 mb)
Winds: from the N (350 degrees) at 21 MPH (18 knots; 9.3 m/s)
Visibility: 6 or more miles (10+ km)
Ceiling: at least 12,000 feet AGL
Clouds: few clouds at 4000 feet AGL
Weather: no significant weather observed at this time

METAR text: LCLK 241000Z 36020G30KT 9999 FEW030 13/01 Q1022 NOSIG
Conditions at: LCLK (LARNACA/LARNAX A, CY) observed 1000 UTC 24 January 2020
Temperature: 13.0°C (55°F)
Dewpoint: 1.0°C (34°F) [RH = 44%]
Pressure (altimeter): 30.18 inches Hg (1022.0 mb)
Winds: from the N (360 degrees) at 23 MPH (20 knots; 10.3 m/s)
gusting to 34 MPH (30 knots; 15.4 m/s)
Visibility: 6 or more miles (10+ km)
Ceiling: at least 12,000 feet AGL
Clouds: few clouds at 3000 feet AGL
Weather: no significant weather observed at this time

METAR text: LCLK 240930Z 36021KT 9999 FEW020 SCT050 13/02 Q1022 NOSIG
Conditions at: LCLK (LARNACA/LARNAX A, CY) observed 0930 UTC 24 January 2020
Temperature: 13.0°C (55°F)
Dewpoint: 2.0°C (36°F) [RH = 47%]
Pressure (altimeter): 30.18 inches Hg (1022.0 mb)
Winds: from the N (360 degrees) at 24 MPH (21 knots; 10.8 m/s)
Visibility: 6 or more miles (10+ km)
Ceiling: at least 12,000 feet AGL
Clouds: few clouds at 2000 feet AGL
scattered clouds at 5000 feet AGL
Weather: no significant weather observed at this time

METAR text: LCLK 240900Z 36020KT 9999 FEW020 SCT050 13/02 Q1022 NOSIG
Conditions at: LCLK (LARNACA/LARNAX A, CY) observed 0900 UTC 24 January 2020
Temperature: 13.0°C (55°F)
Dewpoint: 2.0°C (36°F) [RH = 47%]
Pressure (altimeter): 30.18 inches Hg (1022.0 mb)
Winds: from the N (360 degrees) at 23 MPH (20 knots; 10.3 m/s)
Visibility: 6 or more miles (10+ km)
Ceiling: at least 12,000 feet AGL
Clouds: few clouds at 2000 feet AGL
scattered clouds at 5000 feet AGL
Weather: no significant weather observed at this time

METAR text: LCLK 240830Z 01019KT 9999 FEW020 SCT050 13/02 Q1021 NOSIG
Conditions at: LCLK (LARNACA/LARNAX A, CY) observed 0830 UTC 24 January 2020
Temperature: 13.0°C (55°F)
Dewpoint: 2.0°C (36°F) [RH = 47%]
Pressure (altimeter): 30.15 inches Hg (1021.0 mb)
Winds: from the N (10 degrees) at 22 MPH (19 knots; 9.8 m/s)
Visibility: 6 or more miles (10+ km)
Ceiling: at least 12,000 feet AGL
Clouds: few clouds at 2000 feet AGL
scattered clouds at 5000 feet AGL
Weather: no significant weather observed at this time

METAR text: LCLK 240800Z 36017KT 9999 FEW020 SCT050 12/02 Q1021 NOSIG
Conditions at: LCLK (LARNACA/LARNAX A, CY) observed 0800 UTC 24 January 2020
Temperature: 12.0°C (54°F)
Dewpoint: 2.0°C (36°F) [RH = 50%]
Pressure (altimeter): 30.15 inches Hg (1021.0 mb)
Winds: from the N (360 degrees) at 20 MPH (17 knots; 8.7 m/s)
Visibility: 6 or more miles (10+ km)
Ceiling: at least 12,000 feet AGL
Clouds: few clouds at 2000 feet AGL
scattered clouds at 5000 feet AGL
Weather: no significant weather observed at this time

METAR text: LCLK 240730Z 35016KT 9999 FEW020 SCT050 12/02 Q1021 NOSIG
Conditions at: LCLK (LARNACA/LARNAX A, CY) observed 0730 UTC 24 January 2020
Temperature: 12.0°C (54°F)
Dewpoint: 2.0°C (36°F) [RH = 50%]
Pressure (altimeter): 30.15 inches Hg (1021.0 mb)
Winds: from the N (350 degrees) at 18 MPH (16 knots; 8.2 m/s)
Visibility: 6 or more miles (10+ km)
Ceiling: at least 12,000 feet AGL
Clouds: few clouds at 2000 feet AGL
scattered clouds at 5000 feet AGL
Weather: no significant weather observed at this time

METAR text: LCLK 240700Z 35013KT 9999 FEW020 SCT050 10/02 Q1020 NOSIG
Conditions at: LCLK (LARNACA/LARNAX A, CY) observed 0700 UTC 24 January 2020
Temperature: 10.0°C (50°F)
Dewpoint: 2.0°C (36°F) [RH = 57%]
Pressure (altimeter): 30.12 inches Hg (1020.0 mb)
Winds: from the N (350 degrees) at 15 MPH (13 knots; 6.7 m/s)
Visibility: 6 or more miles (10+ km)
Ceiling: at least 12,000 feet AGL
Clouds: few clouds at 2000 feet AGL
scattered clouds at 5000 feet AGL
Weather: no significant weather observed at this time

METAR text: LCLK 240630Z 36016KT 9999 FEW020 FEW030CB 10/01 Q1020 NOSIG
Conditions at: LCLK (LARNACA/LARNAX A, CY) observed 0630 UTC 24 January 2020
Temperature: 10.0°C (50°F)
Dewpoint: 1.0°C (34°F) [RH = 53%]
Pressure (altimeter): 30.12 inches Hg (1020.0 mb)
Winds: from the N (360 degrees) at 18 MPH (16 knots; 8.2 m/s)
Visibility: 6 or more miles (10+ km)
Ceiling: at least 12,000 feet AGL
Clouds: few clouds at 2000 feet AGL
few clouds at 3000 feet AGL
Weather: no significant weather observed at this time

METAR text: LCLK 240600Z 34009KT 320V020 9999 -SHRA FEW020 SCT050 09/02 Q1019 NOSIG
Conditions at: LCLK (LARNACA/LARNAX A, CY) observed 0600 UTC 24 January 2020
Temperature: 9.0°C (48°F)
Dewpoint: 2.0°C (36°F) [RH = 61%]
Pressure (altimeter): 30.09 inches Hg (1019.0 mb)
Winds: from the NNW (340 degrees) at 10 MPH (9 knots; 4.6 m/s)
Visibility: 6 or more miles (10+ km)
Ceiling: at least 12,000 feet AGL
Clouds: few clouds at 2000 feet AGL
scattered clouds at 5000 feet AGL
Weather: -SHRA  (light rain showers)

METAR text: LCLK 240530Z 36010KT 9999 FEW020 09/01 Q1019 NOSIG
Conditions at: LCLK (LARNACA/LARNAX A, CY) observed 0530 UTC 24 January 2020
Temperature: 9.0°C (48°F)
Dewpoint: 1.0°C (34°F) [RH = 57%]
Pressure (altimeter): 30.09 inches Hg (1019.0 mb)
Winds: from the N (360 degrees) at 12 MPH (10 knots; 5.1 m/s)
Visibility: 6 or more miles (10+ km)
Ceiling: at least 12,000 feet AGL
Clouds: few clouds at 2000 feet AGL
Weather: no significant weather observed at this time

METAR text: LCLK 240500Z 36011KT 9999 FEW020 09/01 Q1019 NOSIG
Conditions at: LCLK (LARNACA/LARNAX A, CY) observed 0500 UTC 24 January 2020
Temperature: 9.0°C (48°F)
Dewpoint: 1.0°C (34°F) [RH = 57%]
Pressure (altimeter): 30.09 inches Hg (1019.0 mb)
Winds: from the N (360 degrees) at 13 MPH (11 knots; 5.7 m/s)
Visibility: 6 or more miles (10+ km)
Ceiling: at least 12,000 feet AGL
Clouds: few clouds at 2000 feet AGL
Weather: no significant weather observed at this time

METAR text: LCLK 240430Z 36015KT 9999 SCT025 09/01 Q1018 NOSIG
Conditions at: LCLK (LARNACA/LARNAX A, CY) observed 0430 UTC 24 January 2020
Temperature: 9.0°C (48°F)
Dewpoint: 1.0°C (34°F) [RH = 57%]
Pressure (altimeter): 30.06 inches Hg (1018.0 mb)
Winds: from the N (360 degrees) at 17 MPH (15 knots; 7.7 m/s)
Visibility: 6 or more miles (10+ km)
Ceiling: at least 12,000 feet AGL
Clouds: scattered clouds at 2500 feet AGL
Weather: no significant weather observed at this time

METAR text: LCLK 240400Z 35018KT 9999 FEW025 09/02 Q1017 NOSIG
Conditions at: LCLK (LARNACA/LARNAX A, CY) observed 0400 UTC 24 January 2020
Temperature: 9.0°C (48°F)
Dewpoint: 2.0°C (36°F) [RH = 61%]
Pressure (altimeter): 30.03 inches Hg (1017.0 mb)
Winds: from the N (350 degrees) at 21 MPH (18 knots; 9.3 m/s)
Visibility: 6 or more miles (10+ km)
Ceiling: at least 12,000 feet AGL
Clouds: few clouds at 2500 feet AGL
Weather: no significant weather observed at this time

METAR text: LCLK 240330Z 36016KT 9999 FEW025 09/02 Q1017 NOSIG
Conditions at: LCLK (LARNACA/LARNAX A, CY) observed 0330 UTC 24 January 2020
Temperature: 9.0°C (48°F)
Dewpoint: 2.0°C (36°F) [RH = 61%]
Pressure (altimeter): 30.03 inches Hg (1017.0 mb)
Winds: from the N (360 degrees) at 18 MPH (16 knots; 8.2 m/s)
Visibility: 6 or more miles (10+ km)
Ceiling: at least 12,000 feet AGL
Clouds: few clouds at 2500 feet AGL
Weather: no significant weather observed at this time

METAR text: LCLK 240300Z 35015KT 9999 FEW025 09/02 Q1016 NOSIG
Conditions at: LCLK (LARNACA/LARNAX A, CY) observed 0300 UTC 24 January 2020
Temperature: 9.0°C (48°F)
Dewpoint: 2.0°C (36°F) [RH = 61%]
Pressure (altimeter): 30.00 inches Hg (1016.0 mb)
Winds: from the N (350 degrees) at 17 MPH (15 knots; 7.7 m/s)
Visibility: 6 or more miles (10+ km)
Ceiling: at least 12,000 feet AGL
Clouds: few clouds at 2500 feet AGL
Weather: no significant weather observed at this time

METAR text: LCLK 240230Z 34015KT 9999 FEW025 09/02 Q1015 NOSIG
Conditions at: LCLK (LARNACA/LARNAX A, CY) observed 0230 UTC 24 January 2020
Temperature: 9.0°C (48°F)
Dewpoint: 2.0°C (36°F) [RH = 61%]
Pressure (altimeter): 29.97 inches Hg (1015.0 mb)
Winds: from the NNW (340 degrees) at 17 MPH (15 knots; 7.7 m/s)
Visibility: 6 or more miles (10+ km)
Ceiling: at least 12,000 feet AGL
Clouds: few clouds at 2500 feet AGL
Weather: no significant weather observed at this time

METAR text: LCLK 240200Z 35011KT 9999 FEW025 SCT060 09/03 Q1016 NOSIG
Conditions at: LCLK (LARNACA/LARNAX A, CY) observed 0200 UTC 24 January 2020
Temperature: 9.0°C (48°F)
Dewpoint: 3.0°C (37°F) [RH = 66%]
Pressure (altimeter): 30.00 inches Hg (1016.0 mb)
Winds: from the N (350 degrees) at 13 MPH (11 knots; 5.7 m/s)
Visibility: 6 or more miles (10+ km)
Ceiling: at least 12,000 feet AGL
Clouds: few clouds at 2500 feet AGL
scattered clouds at 6000 feet AGL
Weather: no significant weather observed at this time

METAR text: LCLK 240130Z 34013KT 9999 FEW025 SCT060 08/03 Q1016 NOSIG
Conditions at: LCLK (LARNACA/LARNAX A, CY) observed 0130 UTC 24 January 2020
Temperature: 8.0°C (46°F)
Dewpoint: 3.0°C (37°F) [RH = 71%]
Pressure (altimeter): 30.00 inches Hg (1016.0 mb)
Winds: from the NNW (340 degrees) at 15 MPH (13 knots; 6.7 m/s)
Visibility: 6 or more miles (10+ km)
Ceiling: at least 12,000 feet AGL
Clouds: few clouds at 2500 feet AGL
scattered clouds at 6000 feet AGL
Weather: no significant weather observed at this time

METAR text: LCLK 240100Z 36013KT 9999 FEW025 SCT060 09/03 Q1016 NOSIG
Conditions at: LCLK (LARNACA/LARNAX A, CY) observed 0100 UTC 24 January 2020
Temperature: 9.0°C (48°F)
Dewpoint: 3.0°C (37°F) [RH = 66%]
Pressure (altimeter): 30.00 inches Hg (1016.0 mb)
Winds: from the N (360 degrees) at 15 MPH (13 knots; 6.7 m/s)
Visibility: 6 or more miles (10+ km)
Ceiling: at least 12,000 feet AGL
Clouds: few clouds at 2500 feet AGL
scattered clouds at 6000 feet AGL
Weather: no significant weather observed at this time

METAR text: LCLK 240030Z 36011KT 9999 FEW025 SCT050 09/03 Q1015 NOSIG
Conditions at: LCLK (LARNACA/LARNAX A, CY) observed 0030 UTC 24 January 2020
Temperature: 9.0°C (48°F)
Dewpoint: 3.0°C (37°F) [RH = 66%]
Pressure (altimeter): 29.97 inches Hg (1015.0 mb)
Winds: from the N (360 degrees) at 13 MPH (11 knots; 5.7 m/s)
Visibility: 6 or more miles (10+ km)
Ceiling: at least 12,000 feet AGL
Clouds: few clouds at 2500 feet AGL
scattered clouds at 5000 feet AGL
Weather: no significant weather observed at this time

METAR text: LCLK 240000Z 01018KT 9999 FEW025 10/03 Q1015 NOSIG
Conditions at: LCLK (LARNACA/LARNAX A, CY) observed 0000 UTC 24 January 2020
Temperature: 10.0°C (50°F)
Dewpoint: 3.0°C (37°F) [RH = 62%]
Pressure (altimeter): 29.97 inches Hg (1015.0 mb)
Winds: from the N (10 degrees) at 21 MPH (18 knots; 9.3 m/s)
Visibility: 6 or more miles (10+ km)
Ceiling: at least 12,000 feet AGL
Clouds: few clouds at 2500 feet AGL
Weather: no significant weather observed at this time

METAR text: LCLK 232300Z 36015KT 9999 FEW025 FEW030CB SCT036 10/05 Q1015 NOSIG
Conditions at: LCLK (LARNACA/LARNAX A, CY) observed 2300 UTC 23 January 2020
Temperature: 10.0°C (50°F)
Dewpoint: 5.0°C (41°F) [RH = 71%]
Pressure (altimeter): 29.97 inches Hg (1015.0 mb)
Winds: from the N (360 degrees) at 17 MPH (15 knots; 7.7 m/s)
Visibility: 6 or more miles (10+ km)
Ceiling: at least 12,000 feet AGL
Clouds: few clouds at 2500 feet AGL
few clouds at 3000 feet AGL
scattered clouds at 3600 feet AGL
Weather: no significant weather observed at this time

METAR text: LCLK 232230Z 34013KT 9999 FEW025 FEW030CB SCT070 10/05 Q1015 NOSIG
Conditions at: LCLK (LARNACA/LARNAX A, CY) observed 2230 UTC 23 January 2020
Temperature: 10.0°C (50°F)
Dewpoint: 5.0°C (41°F) [RH = 71%]
Pressure (altimeter): 29.97 inches Hg (1015.0 mb)
Winds: from the NNW (340 degrees) at 15 MPH (13 knots; 6.7 m/s)
Visibility: 6 or more miles (10+ km)
Ceiling: at least 12,000 feet AGL
Clouds: few clouds at 2500 feet AGL
few clouds at 3000 feet AGL
scattered clouds at 7000 feet AGL
Weather: no significant weather observed at this time

METAR text: LCLK 232200Z 36014KT 9999 -RA FEW025 FEW030CB BKN044 10/05 Q1015 RERA NOSIG
Conditions at: LCLK (LARNACA/LARNAX A, CY) observed 2200 UTC 23 January 2020
Temperature: 10.0°C (50°F)
Dewpoint: 5.0°C (41°F) [RH = 71%]
Pressure (altimeter): 29.97 inches Hg (1015.0 mb)
Winds: from the N (360 degrees) at 16 MPH (14 knots; 7.2 m/s)
Visibility: 6 or more miles (10+ km)
Ceiling: 4400 feet AGL
Clouds: few clouds at 2500 feet AGL
few clouds at 3000 feet AGL
broken clouds at 4400 feet AGL
Weather: -RA  (light rain)

METAR text: LCLK 232130Z 35014KT 9999 FEW025 FEW030CB BKN044 10/05 Q1016 NOSIG
Conditions at: LCLK (LARNACA/LARNAX A, CY) observed 2130 UTC 23 January 2020
Temperature: 10.0°C (50°F)
Dewpoint: 5.0°C (41°F) [RH = 71%]
Pressure (altimeter): 30.00 inches Hg (1016.0 mb)
Winds: from the N (350 degrees) at 16 MPH (14 knots; 7.2 m/s)
Visibility: 6 or more miles (10+ km)
Ceiling: 4400 feet AGL
Clouds: few clouds at 2500 feet AGL
few clouds at 3000 feet AGL
broken clouds at 4400 feet AGL
Weather: no significant weather observed at this time

METAR text: LCLK 232100Z 35012KT 9999 FEW025 FEW030CB BKN044 11/05 Q1016 NOSIG
Conditions at: LCLK (LARNACA/LARNAX A, CY) observed 2100 UTC 23 January 2020
Temperature: 11.0°C (52°F)
Dewpoint: 5.0°C (41°F) [RH = 66%]
Pressure (altimeter): 30.00 inches Hg (1016.0 mb)
Winds: from the N (350 degrees) at 14 MPH (12 knots; 6.2 m/s)
Visibility: 6 or more miles (10+ km)
Ceiling: 4400 feet AGL
Clouds: few clouds at 2500 feet AGL
few clouds at 3000 feet AGL
broken clouds at 4400 feet AGL
Weather: no significant weather observed at this time

METAR text: LCLK 232030Z 01017KT 9999 FEW025 FEW030CB BKN040 11/05 Q1016 NOSIG
Conditions at: LCLK (LARNACA/LARNAX A, CY) observed 2030 UTC 23 January 2020
Temperature: 11.0°C (52°F)
Dewpoint: 5.0°C (41°F) [RH = 66%]
Pressure (altimeter): 30.00 inches Hg (1016.0 mb)
Winds: from the N (10 degrees) at 20 MPH (17 knots; 8.7 m/s)
Visibility: 6 or more miles (10+ km)
Ceiling: 4000 feet AGL
Clouds: few clouds at 2500 feet AGL
few clouds at 3000 feet AGL
broken clouds at 4000 feet AGL
Weather: no significant weather observed at this time

METAR text: LCLK 232000Z 01014KT 9999 FEW025 FEW030CB BKN040 12/07 Q1016 NOSIG
Conditions at: LCLK (LARNACA/LARNAX A, CY) observed 2000 UTC 23 January 2020
Temperature: 12.0°C (54°F)
Dewpoint: 7.0°C (45°F) [RH = 71%]
Pressure (altimeter): 30.00 inches Hg (1016.0 mb)
Winds: from the N (10 degrees) at 16 MPH (14 knots; 7.2 m/s)
Visibility: 6 or more miles (10+ km)
Ceiling: 4000 feet AGL
Clouds: few clouds at 2500 feet AGL
few clouds at 3000 feet AGL
broken clouds at 4000 feet AGL
Weather: no significant weather observed at this time

METAR text: LCLK 231930Z 33005KT 290V350 9999 FEW025 FEW030CB SCT050 10/08 Q1015 NOSIG
Conditions at: LCLK (LARNACA/LARNAX A, CY) observed 1930 UTC 23 January 2020
Temperature: 10.0°C (50°F)
Dewpoint: 8.0°C (46°F) [RH = 87%]
Pressure (altimeter): 29.97 inches Hg (1015.0 mb)
Winds: from the NNW (330 degrees) at 6 MPH (5 knots; 2.6 m/s)
Visibility: 6 or more miles (10+ km)
Ceiling: at least 12,000 feet AGL
Clouds: few clouds at 2500 feet AGL
few clouds at 3000 feet AGL
scattered clouds at 5000 feet AGL
Weather: no significant weather observed at this time

METAR text: LCLK 231900Z 32005KT 270V340 9999 FEW025 10/07 Q1015 NOSIG
Conditions at: LCLK (LARNACA/LARNAX A, CY) observed 1900 UTC 23 January 2020
Temperature: 10.0°C (50°F)
Dewpoint: 7.0°C (45°F) [RH = 82%]
Pressure (altimeter): 29.97 inches Hg (1015.0 mb)
Winds: from the NW (320 degrees) at 6 MPH (5 knots; 2.6 m/s)
Visibility: 6 or more miles (10+ km)
Ceiling: at least 12,000 feet AGL
Clouds: few clouds at 2500 feet AGL
Weather: no significant weather observed at this time

METAR text: LCLK 231830Z 31005KT 9999 FEW025 10/07 Q1015 NOSIG
Conditions at: LCLK (LARNACA/LARNAX A, CY) observed 1830 UTC 23 January 2020
Temperature: 10.0°C (50°F)
Dewpoint: 7.0°C (45°F) [RH = 82%]
Pressure (altimeter): 29.97 inches Hg (1015.0 mb)
Winds: from the NW (310 degrees) at 6 MPH (5 knots; 2.6 m/s)
Visibility: 6 or more miles (10+ km)
Ceiling: at least 12,000 feet AGL
Clouds: few clouds at 2500 feet AGL
Weather: no significant weather observed at this time

METAR text: LCLK 231800Z 32004KT 280V350 9999 FEW025 10/06 Q1015 NOSIG
Conditions at: LCLK (LARNACA/LARNAX A, CY) observed 1800 UTC 23 January 2020
Temperature: 10.0°C (50°F)
Dewpoint: 6.0°C (43°F) [RH = 76%]
Pressure (altimeter): 29.97 inches Hg (1015.0 mb)
Winds: from the NW (320 degrees) at 5 MPH (4 knots; 2.1 m/s)
Visibility: 6 or more miles (10+ km)
Ceiling: at least 12,000 feet AGL
Clouds: few clouds at 2500 feet AGL
Weather: no significant weather observed at this time

METAR text: LCLK 231730Z 30003KT 260V340 9999 FEW025 12/07 Q1015 NOSIG
Conditions at: LCLK (LARNACA/LARNAX A, CY) observed 1730 UTC 23 January 2020
Temperature: 12.0°C (54°F)
Dewpoint: 7.0°C (45°F) [RH = 71%]
Pressure (altimeter): 29.97 inches Hg (1015.0 mb)
Winds: from the WNW (300 degrees) at 3 MPH (3 knots; 1.5 m/s)
Visibility: 6 or more miles (10+ km)
Ceiling: at least 12,000 feet AGL
Clouds: few clouds at 2500 feet AGL
Weather: no significant weather observed at this time

METAR text: LCLK 231700Z 20005KT 9999 FEW025 13/07 Q1015 NOSIG
Conditions at: LCLK (LARNACA/LARNAX A, CY) observed 1700 UTC 23 January 2020
Temperature: 13.0°C (55°F)
Dewpoint: 7.0°C (45°F) [RH = 67%]
Pressure (altimeter): 29.97 inches Hg (1015.0 mb)
Winds: from the SSW (200 degrees) at 6 MPH (5 knots; 2.6 m/s)
Visibility: 6 or more miles (10+ km)
Ceiling: at least 12,000 feet AGL
Clouds: few clouds at 2500 feet AGL
Weather: no significant weather observed at this time

METAR text: LCLK 231630Z 00000KT 9999 FEW025 14/08 Q1016 NOSIG
Conditions at: LCLK (LARNACA/LARNAX A, CY) observed 1630 UTC 23 January 2020
Temperature: 14.0°C (57°F)
Dewpoint: 8.0°C (46°F) [RH = 67%]
Pressure (altimeter): 30.00 inches Hg (1016.0 mb)
Winds: calm
Visibility: 6 or more miles (10+ km)
Ceiling: at least 12,000 feet AGL
Clouds: few clouds at 2500 feet AGL
Weather: no significant weather observed at this time

METAR text: LCLK 231600Z VRB02KT 9999 FEW025 FEW030TCU 15/08 Q1016 NOSIG
Conditions at: LCLK (LARNACA/LARNAX A, CY) observed 1600 UTC 23 January 2020
Temperature: 15.0°C (59°F)
Dewpoint: 8.0°C (46°F) [RH = 63%]
Pressure (altimeter): 30.00 inches Hg (1016.0 mb)
Winds: variable direction winds at 2 MPH (2 knots; 1.0 m/s)
Visibility: 6 or more miles (10+ km)
Ceiling: at least 12,000 feet AGL
Clouds: few clouds at 2500 feet AGL
few clouds at 3000 feet AGL
Weather: no significant weather observed at this time

METAR text: LCLK 231530Z 27006KT 9999 FEW025 FEW030TCU SCT045 15/08 Q1016 NOSIG
Conditions at: LCLK (LARNACA/LARNAX A, CY) observed 1530 UTC 23 January 2020
Temperature: 15.0°C (59°F)
Dewpoint: 8.0°C (46°F) [RH = 63%]
Pressure (altimeter): 30.00 inches Hg (1016.0 mb)
Winds: from the W (270 degrees) at 7 MPH (6 knots; 3.1 m/s)
Visibility: 6 or more miles (10+ km)
Ceiling: at least 12,000 feet AGL
Clouds: few clouds at 2500 feet AGL
few clouds at 3000 feet AGL
scattered clouds at 4500 feet AGL
Weather: no significant weather observed at this time

Forecast for: LCLK (LARNACA/LARNAX A, CY)
Text: TAF LCLK 242330Z 2500/2524 33006KT 9999 FEW030
Forecast period: 0000 to 1000 UTC 25 January 2020
Forecast type: FROM: standard forecast or significant change
Winds: from the NNW (330 degrees) at 7 MPH (6 knots; 3.1 m/s)
Visibility: 6 or more miles 10+ km)
Ceiling: at least 12,000 feet AGL
Clouds: few clouds at 3000 feet AGL
Weather: no significant weather forecast for this period
Text: BECMG 2510/2513 21010KT
Forecast period: 1000 to 1500 UTC 25 January 2020
Forecast type: BECOMING: Conditions expected to become as follows by 1300 UTC 25 January 2020
Winds: from the SSW (210 degrees) at 12 MPH (10 knots; 5.1 m/s)
Visibility: 6 or more miles 10+ km)
Ceiling: at least 12,000 feet AGL
Clouds: few clouds at 3000 feet AGL
Weather: no significant weather forecast for this period
Text: BECMG 2515/2517 28007KT
Forecast period: 1500 UTC 25 January 2020 to 0000 UTC 26 January 2020
Forecast type: BECOMING: Conditions expected to become as follows by 1700 UTC 25 January 2020
Winds: from the W (280 degrees) at 8 MPH (7 knots; 3.6 m/s)
Visibility: 6 or more miles 10+ km)
Ceiling: at least 12,000 feet AGL
Clouds: few clouds at 3000 feet AGL
Weather: no significant weather forecast for this period